Sun Master — V7VU6 — position and weather

sailwx.info

Track history (hours):
 
Tides and Currents Weather Stations Pressure Air Temp Water Temp Dewpoint Dewpoint Depression Visibility Wind Speed Wind Dir Waves Ship Positions

Sun Master

Last reported at 2018-May-06 02:11 UTC. Time now 2018-Jun-25 14:15 UTC.
Position S 32°43' W 071°37'.
Warning: this ship's position is 50 days out of date.

Length 183 m; draft 10.2 m.

Type: Cargo ship. MMSI: 538004216.

Date/timePositionNaut miles runAvg speedWind from/ knotsBaromVisibWave heightAir tempDewpointWater temp
2018-May-06 02:11S 32°43' W 071°37'210.5
2018-May-06 02:00S 32°43' W 071°35'5 0.8
2018-May-05 19:42S 32°45' W 071°29'0 0.0
2018-May-05 16:30S 32°45' W 071°29'0 0.0
2018-May-05 16:00S 32°45' W 071°29'0 0.0
2018-May-05 15:30S 32°45' W 071°29'0 0.0
2018-May-04 16:21S 32°45' W 071°29'0 0.0
2018-May-03 22:09S 32°45' W 071°29'0 0.0
2018-May-03 21:57S 32°45' W 071°29'0 0.0
2018-May-03 21:12S 32°45' W 071°29'0 0.0
2018-May-03 20:51S 32°45' W 071°29'0 0.0
2018-May-03 16:00S 32°45' W 071°29'0 0.0
2018-May-03 04:16S 32°45' W 071°29'1 1.7
2018-May-03 03:51S 32°45' W 071°30'3 5.1
2018-May-03 03:11S 32°45' W 071°34'2 8.0
2018-May-03 02:59S 32°46' W 071°36'3 5.7
2018-May-03 02:30S 32°47' W 071°39'1 1.5
2018-May-03 01:54S 32°48' W 071°38'1 1.6
2018-May-03 01:31S 32°48' W 071°38'1 1.6
2018-May-03 00:50S 32°49' W 071°37'1 1.2
2018-May-03 00:14S 32°49' W 071°37'0 1.0
2018-May-02 23:57S 32°49' W 071°38'2 3.3
2018-May-02 23:29S 32°47' W 071°38'12 1.1
2018-May-02 12:13S 32°44' W 071°51'0 0.6
2018-May-02 11:59S 32°44' W 071°51'8 6.1
2018-May-02 10:38S 32°50' W 071°44'210.5
2018-May-02 10:27S 32°51' W 071°43'12 0.6
2018-May-01 16:19S 33°02' W 071°38'0 0.0
2018-May-01 15:58S 33°02' W 071°38'0 0.1
2018-May-01 15:30S 33°02' W 071°37'1 2.1
2018-May-01 15:00S 33°02' W 071°36'3 6.2
2018-May-01 14:31S 32°59' W 071°39'0 0.6
2018-May-01 14:01S 32°59' W 071°39'0 0.6
2018-May-01 13:30S 32°59' W 071°39'1 1.6
2018-May-01 13:01S 32°58' W 071°39'  
Track history (hours):
 
Tides and Currents Weather Stations Pressure Air Temp Water Temp Dewpoint Dewpoint Depression Visibility Wind Speed Wind Dir Waves Ship Positions

Sun Master

Last reported at 2018-May-06 02:11 UTC. Time now 2018-Jun-25 14:15 UTC.
Position S 32°43' W 071°37'.
Warning: this ship's position is 50 days out of date.

Length 183 m; draft 10.2 m.

Type: Cargo ship. MMSI: 538004216.

Date/timePositionNaut miles runAvg speedWind from/ knotsBaromVisibWave heightAir tempDewpointWater temp
2018-May-06 02:11S 32°43' W 071°37'210.5
2018-May-06 02:00S 32°43' W 071°35'5 0.8
2018-May-05 19:42S 32°45' W 071°29'0 0.0
2018-May-05 16:30S 32°45' W 071°29'0 0.0
2018-May-05 16:00S 32°45' W 071°29'0 0.0
2018-May-05 15:30S 32°45' W 071°29'0 0.0
2018-May-04 16:21S 32°45' W 071°29'0 0.0
2018-May-03 22:09S 32°45' W 071°29'0 0.0
2018-May-03 21:57S 32°45' W 071°29'0 0.0
2018-May-03 21:12S 32°45' W 071°29'0 0.0
2018-May-03 20:51S 32°45' W 071°29'0 0.0
2018-May-03 16:00S 32°45' W 071°29'0 0.0
2018-May-03 04:16S 32°45' W 071°29'1 1.7
2018-May-03 03:51S 32°45' W 071°30'3 5.1
2018-May-03 03:11S 32°45' W 071°34'2 8.0
2018-May-03 02:59S 32°46' W 071°36'3 5.7
2018-May-03 02:30S 32°47' W 071°39'1 1.5
2018-May-03 01:54S 32°48' W 071°38'1 1.6
2018-May-03 01:31S 32°48' W 071°38'1 1.6
2018-May-03 00:50S 32°49' W 071°37'1 1.2
2018-May-03 00:14S 32°49' W 071°37'0 1.0
2018-May-02 23:57S 32°49' W 071°38'2 3.3
2018-May-02 23:29S 32°47' W 071°38'12 1.1
2018-May-02 12:13S 32°44' W 071°51'0 0.6
2018-May-02 11:59S 32°44' W 071°51'8 6.1
2018-May-02 10:38S 32°50' W 071°44'210.5
2018-May-02 10:27S 32°51' W 071°43'12 0.6
2018-May-01 16:19S 33°02' W 071°38'0 0.0
2018-May-01 15:58S 33°02' W 071°38'0 0.1
2018-May-01 15:30S 33°02' W 071°37'1 2.1
2018-May-01 15:00S 33°02' W 071°36'3 6.2
2018-May-01 14:31S 32°59' W 071°39'0 0.6
2018-May-01 14:01S 32°59' W 071°39'0 0.6
2018-May-01 13:30S 32°59' W 071°39'1 1.6
2018-May-01 13:01S 32°58' W 071°39'  

Dump ship's entire track history